createdAt,value
2019-01-30T05:43:56.971Z,12.47
2019-01-30T05:46:26.368Z,12.78
2019-01-30T05:48:55.620Z,12.25
2019-01-30T05:51:25.059Z,13.25
2019-01-30T05:53:54.445Z,12.75
2019-01-30T05:56:24.883Z,12.40
2019-01-30T05:58:54.134Z,13.22
2019-01-30T06:01:23.494Z,12.80
2019-01-30T06:03:52.792Z,13.00
2019-01-30T06:06:22.080Z,13.30
2019-01-30T06:08:52.501Z,13.32
2019-01-30T06:11:22.069Z,12.58
2019-01-30T06:13:51.299Z,12.65
2019-01-30T06:16:20.579Z,13.20
2019-01-30T06:18:49.837Z,14.00
2019-01-30T06:21:21.200Z,13.80
2019-01-30T06:23:50.441Z,13.62
2019-01-30T06:26:19.659Z,13.93
2019-01-30T06:28:48.941Z,13.90
2019-01-30T06:31:18.221Z,13.18
2019-01-30T06:33:47.415Z,13.43
2019-01-30T06:36:16.640Z,12.68
2019-01-30T06:38:45.985Z,12.68
2019-01-30T06:41:15.379Z,13.45
2019-01-30T06:43:44.554Z,12.43
2019-01-30T06:46:13.761Z,12.05
2019-01-30T06:48:42.977Z,12.33
2019-01-30T06:51:12.261Z,12.53
2019-01-30T06:53:41.521Z,11.70
2019-01-30T06:56:10.836Z,11.78
2019-01-30T06:58:40.187Z,11.12
2019-01-30T07:01:09.578Z,11.55
2019-01-30T07:03:38.870Z,11.12
2019-01-30T07:06:08.144Z,10.60
2019-01-30T07:08:37.445Z,11.80
2019-01-30T07:11:10.790Z,10.88
2019-01-30T07:13:37.700Z,10.57
2019-01-30T07:16:07.003Z,10.93
2019-01-30T07:18:36.283Z,11.10
2019-01-30T07:21:05.629Z,10.93
2019-01-30T07:23:34.924Z,10.77
2019-01-30T07:26:04.433Z,10.60
2019-01-30T07:28:33.690Z,11.48
2019-01-30T07:31:03.007Z,11.38
2019-01-30T07:33:32.415Z,11.30
2019-01-30T07:36:01.735Z,11.60
2019-01-30T07:38:31.052Z,11.90
2019-01-30T07:41:00.273Z,11.40
2019-01-30T07:43:29.614Z,11.35
2019-01-30T07:45:58.840Z,11.60
2019-01-30T07:48:29.053Z,10.43
2019-01-30T07:50:58.595Z,10.60
2019-01-30T07:53:27.952Z,11.33
2019-01-30T07:55:57.348Z,10.47
2019-01-30T07:58:26.719Z,11.50
2019-01-30T08:00:56.002Z,10.20
2019-01-30T08:03:25.271Z,10.77
2019-01-30T08:05:54.591Z,10.23
2019-01-30T08:08:23.886Z,10.77
2019-01-30T08:10:53.176Z,10.63
2019-01-30T08:13:22.430Z,10.98
2019-01-30T08:15:51.727Z,10.67
2019-01-30T08:18:21.375Z,10.73
2019-01-30T08:20:50.594Z,11.13
2019-01-30T08:23:20.132Z,11.10
2019-01-30T08:25:49.447Z,10.70
2019-01-30T08:28:20.212Z,11.60
2019-01-30T08:30:49.738Z,10.30
2019-01-30T08:33:21.525Z,10.90
2019-01-30T08:35:50.340Z,10.00
2019-01-30T08:38:19.550Z,11.07
2019-01-30T08:40:48.880Z,11.30
2019-01-30T08:43:18.176Z,11.77
2019-01-30T08:45:47.440Z,10.23
2019-01-30T08:48:16.708Z,10.47
2019-01-30T08:50:45.907Z,10.00
2019-01-30T08:53:15.256Z,10.57
2019-01-30T08:55:44.662Z,10.40
2019-01-30T08:58:13.930Z,10.57
2019-01-30T09:00:43.147Z,9.97
2019-01-30T09:03:15.030Z,10.40
2019-01-30T09:05:43.377Z,9.93
2019-01-30T09:08:12.846Z,10.00
2019-01-30T09:10:42.391Z,10.20
2019-01-30T09:13:12.179Z,10.83
2019-01-30T09:15:41.400Z,10.73
2019-01-30T09:18:11.735Z,10.63
2019-01-30T09:20:41.053Z,10.90
2019-01-30T09:23:10.400Z,9.40
2019-01-30T09:25:39.673Z,10.57
2019-01-30T09:28:08.954Z,9.90
2019-01-30T09:30:39.562Z,9.23
2019-01-30T09:33:11.277Z,10.00
2019-01-30T09:35:40.638Z,9.63
2019-01-30T09:38:10.336Z,10.07
2019-01-30T09:40:39.650Z,9.70
2019-01-30T09:43:08.871Z,10.30
2019-01-30T09:45:38.175Z,9.63
2019-01-30T09:48:08.058Z,9.73
2019-01-30T09:50:37.340Z,9.63
2019-01-30T09:53:07.341Z,8.93
2019-01-30T09:55:36.595Z,9.27
2019-01-30T09:58:07.833Z,9.43
2019-01-30T10:00:38.333Z,8.77
2019-01-30T10:03:08.705Z,9.33
2019-01-30T10:05:38.029Z,9.80
2019-01-30T10:08:08.658Z,9.37
2019-01-30T10:10:39.465Z,10.17
2019-01-30T10:13:09.569Z,10.10
2019-01-30T10:15:41.099Z,8.87
2019-01-30T10:18:11.674Z,9.90
2019-01-30T10:20:42.065Z,9.73
2019-01-30T10:23:19.211Z,9.00
2019-01-30T10:25:48.442Z,9.43
2019-01-30T10:28:17.675Z,9.30
2019-01-30T10:30:47.313Z,9.63
2019-01-30T10:33:17.058Z,9.50
2019-01-30T10:35:46.876Z,9.47
2019-01-30T10:38:16.293Z,10.30
2019-01-30T10:40:45.644Z,10.50
2019-01-30T10:43:15.913Z,8.90
2019-01-30T10:45:45.198Z,8.50
2019-01-30T10:48:14.476Z,8.43
2019-01-30T10:50:43.995Z,8.33
2019-01-30T10:53:13.256Z,7.40
2019-01-30T10:55:42.442Z,7.20
2019-01-30T10:58:15.322Z,7.40
2019-01-30T11:00:49.705Z,8.57
2019-01-30T11:03:20.157Z,7.17
2019-01-30T11:05:49.922Z,8.10
2019-01-30T11:08:19.385Z,7.53
2019-01-30T11:10:50.995Z,7.30
2019-01-30T11:13:20.699Z,7.93
2019-01-30T11:15:50.117Z,7.57
2019-01-30T11:18:19.724Z,7.40
2019-01-30T11:20:48.942Z,7.50
2019-01-30T11:23:18.184Z,7.10
2019-01-30T11:25:49.442Z,7.27
2019-01-30T11:28:18.842Z,8.57
2019-01-30T11:30:48.278Z,8.60
2019-01-30T11:33:18.105Z,8.13
2019-01-30T11:35:47.301Z,9.07
2019-01-30T11:38:16.599Z,8.50
2019-01-30T11:40:45.783Z,8.40
2019-01-30T11:43:15.124Z,8.47
2019-01-30T11:45:45.841Z,8.07
2019-01-30T11:48:15.593Z,8.47
2019-01-30T11:50:45.215Z,8.47
2019-01-30T11:53:14.884Z,8.50
2019-01-30T11:55:44.154Z,7.70
2019-01-30T11:58:13.472Z,8.73
2019-01-30T12:00:47.176Z,8.43
2019-01-30T12:03:16.469Z,8.83
2019-01-30T12:05:47.541Z,8.03
2019-01-30T12:08:16.817Z,8.27
2019-01-30T12:10:46.103Z,8.80
2019-01-30T12:13:15.623Z,9.30
2019-01-30T12:15:45.214Z,8.83
2019-01-30T12:18:14.418Z,9.20
2019-01-30T12:20:43.683Z,8.87
2019-01-30T12:23:12.921Z,8.53
2019-01-30T12:25:42.222Z,8.60
2019-01-30T12:28:11.550Z,8.13
2019-01-30T12:30:41.219Z,9.20
2019-01-30T12:33:10.560Z,8.53
2019-01-30T12:35:39.763Z,9.33
2019-01-30T12:38:08.931Z,8.93
2019-01-30T12:40:38.221Z,8.90
2019-01-30T12:43:08.780Z,9.10
2019-01-30T12:45:38.560Z,8.90
2019-01-30T12:48:10.889Z,9.13
2019-01-30T12:50:40.242Z,10.90
2019-01-30T12:53:09.888Z,10.20
2019-01-30T12:55:40.236Z,10.27
2019-01-30T12:58:09.580Z,10.17
2019-01-30T13:00:41.779Z,9.97
2019-01-30T13:03:11.000Z,9.57
2019-01-30T13:05:40.864Z,8.73
2019-01-30T13:08:10.064Z,8.10
2019-01-30T13:10:39.563Z,8.33
2019-01-30T13:13:08.771Z,8.60
2019-01-30T13:15:38.054Z,8.17
2019-01-30T13:18:17.688Z,8.07
2019-01-30T13:20:38.974Z,7.67
2019-01-30T13:23:08.331Z,7.50
2019-01-30T13:25:37.626Z,6.37
2019-01-30T13:28:08.512Z,7.20
2019-01-30T13:30:40.571Z,7.17
2019-01-30T13:33:12.131Z,7.20
2019-01-30T13:35:41.428Z,7.43
2019-01-30T13:38:10.886Z,7.30
2019-01-30T13:40:42.721Z,7.30
2019-01-30T13:43:11.978Z,7.53
2019-01-30T13:45:41.381Z,8.30
2019-01-30T13:48:21.619Z,7.93
2019-01-30T13:50:51.025Z,7.47
2019-01-30T13:53:20.531Z,8.03
2019-01-30T13:55:49.849Z,8.00
2019-01-30T13:58:19.270Z,8.13
2019-01-30T14:00:48.807Z,7.93
2019-01-30T14:03:18.158Z,8.27
2019-01-30T14:05:47.373Z,7.47
2019-01-30T14:08:16.729Z,7.33
2019-01-30T14:10:46.026Z,7.50
2019-01-30T14:13:15.276Z,8.20
2019-01-30T14:15:44.520Z,8.23
2019-01-30T14:18:13.976Z,7.77
2019-01-30T14:20:43.292Z,8.57
2019-01-30T14:23:12.912Z,7.90
2019-01-30T14:25:42.175Z,7.33
2019-01-30T14:28:11.541Z,7.50
2019-01-30T14:30:41.206Z,8.00
2019-01-30T14:33:10.959Z,7.90
2019-01-30T14:35:47.332Z,7.93
2019-01-30T14:38:17.011Z,7.17
2019-01-30T14:40:46.502Z,8.00
2019-01-30T14:43:15.783Z,4.83
2019-01-30T14:45:45.112Z,5.10
2019-01-30T14:48:14.435Z,2.60
2019-01-30T14:50:43.747Z,2.27
2019-01-30T14:53:13.080Z,1.30
2019-01-30T14:55:42.342Z,0.90
2019-01-30T14:58:12.128Z,0.97
2019-01-30T15:00:41.492Z,0.80
2019-01-30T15:03:10.959Z,0.73
2019-01-30T15:05:41.937Z,0.93
2019-01-30T15:08:11.271Z,1.00
2019-01-30T15:10:40.627Z,0.90
2019-01-30T15:13:10.258Z,1.40
2019-01-30T15:15:41.041Z,1.30
2019-01-30T15:18:10.421Z,0.80
2019-01-30T15:20:41.147Z,0.80
2019-01-30T15:23:11.111Z,0.90
2019-01-30T15:25:40.759Z,0.63
2019-01-30T15:28:10.818Z,1.67
2019-01-30T15:30:46.103Z,1.00
2019-01-30T15:33:15.421Z,0.70
2019-01-30T15:35:44.995Z,1.63
2019-01-30T15:38:16.567Z,0.80
2019-01-30T15:40:45.923Z,0.90
2019-01-30T15:43:15.264Z,1.60
2019-01-30T15:45:44.593Z,0.77
2019-01-30T15:48:14.327Z,2.13
2019-01-30T15:50:44.178Z,0.83
2019-01-30T15:53:16.453Z,1.10
2019-01-30T15:55:45.786Z,0.90
2019-01-30T15:58:15.099Z,1.57
2019-01-30T16:00:50.616Z,4.60
2019-01-30T16:03:20.197Z,9.40
2019-01-30T16:05:49.423Z,9.87
2019-01-30T16:08:18.695Z,2.00
2019-01-30T16:10:47.910Z,1.77
2019-01-30T16:13:17.278Z,1.20
2019-01-30T16:15:50.089Z,1.27
2019-01-30T16:18:19.416Z,1.43
2019-01-30T16:20:49.119Z,1.20
2019-01-30T16:23:18.438Z,1.40
2019-01-30T16:25:47.708Z,1.30
2019-01-30T16:28:16.923Z,1.10
2019-01-30T16:30:46.142Z,1.20
2019-01-30T16:33:15.549Z,0.87
2019-01-30T16:35:55.362Z,1.10
2019-01-30T16:38:15.882Z,0.70
2019-01-30T16:40:45.169Z,1.10
2019-01-30T16:43:14.423Z,0.67
2019-01-30T16:45:43.740Z,0.80
2019-01-30T16:48:13.052Z,1.00
2019-01-30T16:50:42.346Z,1.23
2019-01-30T16:53:11.834Z,0.90
2019-01-30T16:55:41.359Z,0.97
2019-01-30T16:58:11.302Z,1.80
2019-01-30T17:00:41.309Z,0.77
2019-01-30T17:03:10.979Z,1.30
2019-01-30T17:05:40.289Z,1.20
2019-01-30T17:08:10.732Z,1.67
2019-01-30T17:10:40.204Z,7.53
2019-01-30T17:13:09.401Z,1.47
2019-01-30T17:15:39.562Z,1.30
2019-01-30T17:18:11.026Z,0.90
2019-01-30T17:20:41.308Z,1.50
2019-01-30T17:23:11.708Z,0.90
2019-01-30T17:25:41.497Z,1.10
2019-01-30T17:28:11.190Z,1.30
2019-01-30T17:30:47.817Z,1.33
2019-01-30T17:33:17.054Z,1.10
2019-01-30T17:35:46.262Z,6.97
2019-01-30T17:38:15.583Z,3.50
2019-01-30T17:40:45.599Z,2.47
2019-01-30T17:43:15.139Z,1.00
2019-01-30T17:45:44.688Z,1.00
2019-01-30T17:48:14.701Z,1.20
2019-01-30T17:50:44.299Z,1.40
2019-01-30T17:53:13.603Z,1.20
2019-01-30T17:55:42.952Z,3.33
2019-01-30T17:58:12.270Z,1.93
2019-01-30T18:00:51.154Z,2.77
2019-01-30T18:03:20.418Z,1.57
2019-01-30T18:05:49.780Z,1.80
2019-01-30T18:08:19.072Z,1.80
2019-01-30T18:10:48.343Z,1.27
2019-01-30T18:13:17.611Z,1.30
2019-01-30T18:15:46.994Z,1.13
2019-01-30T18:18:16.367Z,1.10
2019-01-30T18:20:45.627Z,1.10
2019-01-30T18:23:16.949Z,1.10
2019-01-30T18:25:47.341Z,1.20
2019-01-30T18:28:16.626Z,1.20
2019-01-30T18:30:46.004Z,1.27
2019-01-30T18:33:16.470Z,1.30
2019-01-30T18:35:45.775Z,1.30
2019-01-30T18:38:19.455Z,1.27
2019-01-30T18:40:52.543Z,1.60
2019-01-30T18:43:21.876Z,1.23
2019-01-30T18:45:51.277Z,1.33
2019-01-30T18:48:20.576Z,1.40
2019-01-30T18:50:49.968Z,1.40
2019-01-30T18:53:19.263Z,1.27
2019-01-30T18:55:48.573Z,1.40
2019-01-30T18:58:17.980Z,1.40
2019-01-30T19:00:47.232Z,1.40
2019-01-30T19:03:20.626Z,1.20
2019-01-30T19:05:50.768Z,1.00
2019-01-30T19:08:20.276Z,1.20
2019-01-30T19:10:50.155Z,1.20
2019-01-30T19:13:19.523Z,1.10
2019-01-30T19:15:50.599Z,1.10
2019-01-30T19:18:19.996Z,1.10
2019-01-30T19:20:50.356Z,1.20
2019-01-30T19:23:19.743Z,1.13
2019-01-30T19:25:49.113Z,1.30
2019-01-30T19:28:18.403Z,1.23
2019-01-30T19:30:47.659Z,1.30
2019-01-30T19:33:16.964Z,2.00
2019-01-30T19:35:46.307Z,1.40
2019-01-30T19:38:15.868Z,1.40
2019-01-30T19:40:45.420Z,1.23
2019-01-30T19:43:14.606Z,1.40
2019-01-30T19:45:44.317Z,1.60
2019-01-30T19:48:13.720Z,1.23
2019-01-30T19:50:43.213Z,1.23
2019-01-30T19:53:12.662Z,1.27
2019-01-30T19:55:41.995Z,1.30
2019-01-30T19:58:12.249Z,1.40
2019-01-30T20:00:45.996Z,1.40
2019-01-30T20:03:21.277Z,1.23
2019-01-30T20:05:50.670Z,1.23
2019-01-30T20:08:19.994Z,1.40
2019-01-30T20:10:49.383Z,1.40
2019-01-30T20:13:18.723Z,1.43
2019-01-30T20:15:48.007Z,1.40
2019-01-30T20:18:17.500Z,1.87
2019-01-30T20:20:46.897Z,1.40
2019-01-30T20:23:18.712Z,1.33
2019-01-30T20:25:47.942Z,1.40
2019-01-30T20:28:17.222Z,1.50
2019-01-30T20:30:46.743Z,1.37
2019-01-30T20:33:16.019Z,1.30
2019-01-30T20:35:45.319Z,1.60
2019-01-30T20:38:14.579Z,1.80
2019-01-30T20:40:43.885Z,1.70
2019-01-30T20:43:13.200Z,1.30
2019-01-30T20:45:42.608Z,1.80
2019-01-30T20:48:12.413Z,1.70
2019-01-30T20:50:41.802Z,1.50
2019-01-30T20:53:11.175Z,1.80
2019-01-30T20:55:40.602Z,1.93
2019-01-30T20:58:09.959Z,2.00
2019-01-30T21:00:40.160Z,1.83
2019-01-30T21:03:10.322Z,1.90
2019-01-30T21:05:39.553Z,1.73
2019-01-30T21:08:08.905Z,1.80
2019-01-30T21:10:40.618Z,1.77
2019-01-30T21:13:10.943Z,1.50
2019-01-30T21:15:40.280Z,1.73
2019-01-30T21:18:09.647Z,1.55
2019-01-30T21:20:38.956Z,1.77
2019-01-30T21:23:08.339Z,1.53
2019-01-30T21:25:37.717Z,1.50
2019-01-30T21:28:07.137Z,1.23
2019-01-30T21:30:37.927Z,1.53
2019-01-30T21:33:07.740Z,1.60
2019-01-30T21:35:36.974Z,1.30
2019-01-30T21:38:07.701Z,1.50
2019-01-30T21:40:37.233Z,1.87
2019-01-30T21:43:07.080Z,1.60
2019-01-30T21:45:36.691Z,1.40
2019-01-30T21:48:06.870Z,1.47
2019-01-30T21:50:36.179Z,1.50
2019-01-30T21:53:06.111Z,1.90
2019-01-30T21:55:35.939Z,1.50
2019-01-30T21:58:05.750Z,1.80
2019-01-30T22:00:35.260Z,1.60
2019-01-30T22:03:05.393Z,1.67
2019-01-30T22:05:34.837Z,2.00
2019-01-30T22:08:04.940Z,2.03
2019-01-30T22:10:34.258Z,2.00
2019-01-30T22:13:03.620Z,2.03
2019-01-30T22:15:32.858Z,1.90
2019-01-30T22:18:02.062Z,2.07
2019-01-30T22:20:31.412Z,2.20
2019-01-30T22:23:00.643Z,2.50
2019-01-30T22:25:29.843Z,2.70
2019-01-30T22:27:59.167Z,2.13
2019-01-30T22:30:31.183Z,2.40
